Fertility, Pennsylvania
Current Conditions -  °F | °C
As of 1:19 AM on Monday 26 Jan 2015 (Local Time) from KLNS Reporting Station
Light Snow Light Snow  
Wind Chill: 19°   Ceiling: 800
Heat Index: 29°   Visibility: 1.5mi
Dew Point: 27°   Wind: 13mph
Humidity: 92%   Direction: 80°E
Pressure: 29.89"   Gusts: NA
Location:  40.0158°N, 76.2452°W
Report Text: KLNS 260619Z AUTO 08011KT 1 1/2SM -SN BR BKN008 BKN012 OVC020 M02/M03 A2989 RMK AO2 CIG 006V010 P0000 T10171028
Loading
Personal Weather Stations






























Interactive Weather Map New forecast layout! Learn more

10-Day Weather Forecast

Advertisements
Track Severe Weather on mobile